Detall de PIREP

Printer-friendly versionPDF version

[2014/01/12 07:29:00]
Flight IATA:CT2100
Pilot Number:041
Company ICAO:CAT
Aircraft Type:F70/E
PAX:70
Aircraft Registration:DA
Departing Airport: LEVC
Destination Airport: LEAS
Alternate Airport:LEMD
Online: VATSIM
Route:CENTA A33 PRADO UN733 ZMR UM30 ROVAK R107 XONDA


Flight Level:FL340
No Slew and time accel
No pause
Crash detect
Detect pilot in Cockpit between each 30 and 45 minutes
07:29 Zero fuel Weight: 74045 Lbs, Fuel Weight: 10445 Lbs
07:29 VATSIM:LEVC 120700Z VRB02KT 8000 NSC 06/05 Q1023 NOSIG
07:29 VATSIM:LEAS 120700Z 24005KT 210V270 9999 FEW025 08/05 Q1015 NOSIG
07:30 VOICE CATALONIAN
07:37 Parking Brakes off
07:44 Take-off
07:44 Take off Weight: 84130 Lbs
07:44 Wind: 073º @ 001 Knots Heading: 295º
07:44 POS N39º 29´ 25´´ W000º 29´ 06´´
07:44 Gear Up: 160 Knots
07:44 Flaps:1 at 160 Knots
07:45 Flaps:0 at 152 Knots
07:59 Wind:349º@020 Knots Heading: 301º Ground Speed: 359 Knots Altitude 22234 ft
08:13 TOC
08:13 Fuel Weight: 7035 Lb
08:14 Wind:338º@046 Knots Heading: 301º Ground Speed: 359 Knots Altitude 34219 ft
08:29 Wind:298º@034 Knots Heading: 295º Ground Speed: 364 Knots Altitude 34268 ft
08:38 TOD
08:38 Fuel Weight: 5389 Lb
08:44 Wind:225º@020 Knots Heading: 350º Ground Speed: 342 Knots Altitude 17417 ft
08:51 Flaps:1 at 225 Knots
08:52 Flaps:2 at 201 Knots
08:53 Flaps:3 at 163 Knots
08:53 Gear Down: 150 Knots
08:53 Flaps:4 at 133 Knots
08:56 TouchDown:Rate -212 ft/min Speed: 113 Knots
08:56 VATSIM:LEAS 120830Z 22006KT 180V250 9999 FEW025 09/04 Q1015 NOSIG
08:56 Land
08:56 Wind:235º@006 Knots
08:56 Heading: 288º
08:56 Flight Duration: 01:12
08:56 Landing Weight: 78857 Lbs
08:56 POS N43º 33´ 44´´ W006º 01´ 47´´
08:58 Parking brakes on
08:58 Block to Block Duration: 01:21
08:58 Final Fuel: 4737 Lbls
08:58 Spent Fuel: 5707 Lbls
08:58 Flight Length: 397 NM
08:58 TOD Land Length: 86 NM

Exportar CSV

Powered by Drupal - Modified by Danger4k